createdAt,value
2019-06-01T00:00:17.813Z,-78
2019-06-01T00:03:04.856Z,-79
2019-06-01T00:05:34.271Z,-80
2019-06-01T00:08:03.775Z,-80
2019-06-01T00:10:33.231Z,-80
2019-06-01T00:16:31.576Z,-78
2019-06-01T00:19:00.958Z,-78
2019-06-01T00:21:54.237Z,-78
2019-06-01T00:24:23.990Z,-80
2019-06-01T00:26:55.279Z,-80
2019-06-01T00:29:30.009Z,-80
2019-06-01T00:31:59.351Z,-79
2019-06-01T00:34:35.965Z,-80
2019-06-01T00:37:05.382Z,-79
2019-06-01T00:40:32.943Z,-79
2019-06-01T00:43:02.407Z,-79
2019-06-01T00:45:31.741Z,-79
2019-06-01T00:48:01.208Z,-79
2019-06-01T00:50:30.692Z,-79
2019-06-01T00:53:00.169Z,-79
2019-06-01T00:55:43.144Z,-79
2019-06-01T00:58:46.145Z,-80
2019-06-01T01:02:09.092Z,-80
2019-06-01T01:04:38.581Z,-80
2019-06-01T01:07:08.099Z,-80
2019-06-01T01:09:37.541Z,-81
2019-06-01T01:15:47.712Z,-77
2019-06-01T01:18:17.185Z,-78
2019-06-01T01:20:47.766Z,-78
2019-06-01T01:26:46.416Z,-80
2019-06-01T01:29:15.867Z,-80
2019-06-01T01:31:45.314Z,-80
2019-06-01T01:34:14.871Z,-81
2019-06-01T01:36:44.432Z,-81
2019-06-01T01:39:13.820Z,-80
2019-06-01T01:42:16.284Z,-80
2019-06-01T01:44:45.882Z,-80
2019-06-01T01:47:15.307Z,-80
2019-06-01T01:49:50.009Z,-80
2019-06-01T01:52:34.072Z,-79
2019-06-01T01:55:03.529Z,-80
2019-06-01T01:57:33.939Z,-79
2019-06-01T02:00:03.473Z,-80
2019-06-01T02:02:32.812Z,-80
2019-06-01T02:08:30.646Z,-80
2019-06-01T02:10:59.996Z,-80
2019-06-01T02:13:29.661Z,-80
2019-06-01T02:16:00.571Z,-80
2019-06-01T02:18:30.340Z,-80
2019-06-01T02:21:00.460Z,-80
2019-06-01T02:23:30.135Z,-80
2019-06-01T02:30:05.636Z,-78
2019-06-01T02:36:16.069Z,-78
2019-06-01T02:38:45.610Z,-79
2019-06-01T02:41:15.078Z,-78
2019-06-01T02:43:44.581Z,-78
2019-06-01T02:46:13.882Z,-78
2019-06-01T02:48:43.370Z,-78
2019-06-01T02:57:20.957Z,-78
2019-06-01T02:59:50.512Z,-78
2019-06-01T03:02:19.967Z,-77
2019-06-01T03:04:49.412Z,-78
2019-06-01T03:07:42.075Z,-78
2019-06-01T03:10:24.739Z,-77
2019-06-01T03:12:55.201Z,-77
2019-06-01T03:15:47.080Z,-78
2019-06-01T03:18:16.615Z,-78
2019-06-01T03:20:46.264Z,-77
2019-06-01T03:23:18.560Z,-78
2019-06-01T03:25:49.874Z,-78
2019-06-01T03:28:20.286Z,-78
2019-06-01T03:34:18.584Z,-80
2019-06-01T03:36:48.114Z,-80
2019-06-01T03:39:19.050Z,-80
2019-06-01T03:41:48.518Z,-80
2019-06-01T03:44:18.347Z,-80
2019-06-01T03:46:59.953Z,-80
2019-06-01T03:49:47.903Z,-80
2019-06-01T03:52:17.263Z,-80
2019-06-01T03:54:48.656Z,-80
2019-06-01T03:57:17.946Z,-80
2019-06-01T03:59:47.452Z,-80
2019-06-01T04:02:16.893Z,-80
2019-06-01T04:04:46.445Z,-80
2019-06-01T04:07:15.871Z,-80
2019-06-01T04:09:45.182Z,-80
2019-06-01T04:12:14.731Z,-80
2019-06-01T04:15:14.479Z,-80
2019-06-01T04:17:42.391Z,-80
2019-06-01T04:20:12.316Z,-80
2019-06-01T04:22:48.061Z,-80
2019-06-01T04:25:17.443Z,-80
2019-06-01T04:27:46.896Z,-80
2019-06-01T04:30:16.304Z,-80
2019-06-01T04:32:50.010Z,-80
2019-06-01T04:35:16.899Z,-80
2019-06-01T04:37:46.492Z,-80
2019-06-01T04:40:15.932Z,-80
2019-06-01T04:42:45.484Z,-80
2019-06-01T04:45:14.900Z,-80
2019-06-01T04:48:00.004Z,-80
2019-06-01T04:50:29.497Z,-80
2019-06-01T04:56:03.177Z,-80
2019-06-01T04:58:32.670Z,-80
2019-06-01T05:01:02.114Z,-80
2019-06-01T05:04:11.172Z,-80
2019-06-01T05:06:40.922Z,-81
2019-06-01T05:09:11.358Z,-81
2019-06-01T05:15:29.261Z,-80
2019-06-01T05:17:58.750Z,-78
2019-06-01T05:21:10.556Z,-78
2019-06-01T05:23:39.939Z,-80
2019-06-01T05:29:38.178Z,-78
2019-06-01T05:32:08.369Z,-78
2019-06-01T05:35:16.186Z,-78
2019-06-01T05:37:45.650Z,-78
2019-06-01T05:40:16.638Z,-78
2019-06-01T05:43:14.876Z,-78
2019-06-01T05:45:42.349Z,-79
2019-06-01T05:48:28.439Z,-79
2019-06-01T05:50:55.357Z,-80
2019-06-01T05:53:24.875Z,-80
2019-06-01T05:55:54.312Z,-80
2019-06-01T05:58:23.649Z,-80
2019-06-01T06:00:53.138Z,-81
2019-06-01T06:03:39.277Z,-81
2019-06-01T06:05:53.766Z,-80
2019-06-01T06:08:41.310Z,-81
2019-06-01T06:11:10.869Z,-81
2019-06-01T06:14:34.350Z,-80
2019-06-01T06:17:40.428Z,-80
2019-06-01T06:20:09.833Z,-78
2019-06-01T06:22:48.228Z,-78
2019-06-01T06:25:17.639Z,-78
2019-06-01T06:27:46.946Z,-78
2019-06-01T06:30:24.122Z,-78
2019-06-01T06:32:53.454Z,-78
2019-06-01T06:35:23.710Z,-78
2019-06-01T06:37:53.516Z,-78
2019-06-01T06:40:24.181Z,-78
2019-06-01T06:42:53.821Z,-78
2019-06-01T06:45:53.222Z,-78
2019-06-01T06:49:21.454Z,-79
2019-06-01T06:51:50.796Z,-79
2019-06-01T06:55:15.734Z,-79
2019-06-01T06:57:48.210Z,-79
2019-06-01T07:00:18.507Z,-80
2019-06-01T07:02:48.054Z,-80
2019-06-01T07:05:17.569Z,-79
2019-06-01T07:07:47.021Z,-80
2019-06-01T07:10:24.280Z,-79
2019-06-01T07:12:53.674Z,-80
2019-06-01T07:16:10.397Z,-80
2019-06-01T07:22:08.690Z,-80
2019-06-01T07:24:38.194Z,-80
2019-06-01T07:27:07.566Z,-80
2019-06-01T07:29:36.971Z,-80
2019-06-01T07:32:06.487Z,-80
2019-06-01T07:34:41.538Z,-80
2019-06-01T07:37:07.102Z,-80
2019-06-01T07:39:36.412Z,-80
2019-06-01T07:42:07.145Z,-80
2019-06-01T07:44:36.464Z,-80
2019-06-01T07:47:05.924Z,-80
2019-06-01T07:49:53.283Z,-80
2019-06-01T07:52:24.098Z,-80
2019-06-01T07:54:53.754Z,-80
2019-06-01T07:57:23.567Z,-80
2019-06-01T07:59:53.167Z,-80
2019-06-01T08:02:25.358Z,-80
2019-06-01T08:04:54.765Z,-82
2019-06-01T08:07:24.924Z,-80
2019-06-01T08:10:46.420Z,-80
2019-06-01T08:13:18.060Z,-80
2019-06-01T08:15:47.482Z,-80
2019-06-01T08:18:18.269Z,-80
2019-06-01T08:20:47.802Z,-80
2019-06-01T08:23:17.230Z,-80
2019-06-01T08:25:48.059Z,-80
2019-06-01T08:28:17.470Z,-80
2019-06-01T08:31:24.450Z,-80
2019-06-01T08:33:54.128Z,-80
2019-06-01T08:36:23.594Z,-80
2019-06-01T08:39:07.938Z,-80
2019-06-01T08:41:37.198Z,-80
2019-06-01T08:44:06.642Z,-80
2019-06-01T08:46:36.153Z,-80
2019-06-01T08:49:05.660Z,-80
2019-06-01T08:51:34.990Z,-80
2019-06-01T08:54:04.429Z,-80
2019-06-01T08:56:34.483Z,-80
2019-06-01T08:59:04.327Z,-80
2019-06-01T09:01:34.935Z,-80
2019-06-01T09:04:40.424Z,-80
2019-06-01T09:07:09.770Z,-80
2019-06-01T09:09:39.162Z,-80
2019-06-01T09:12:08.642Z,-80
2019-06-01T09:14:38.009Z,-80
2019-06-01T09:17:07.349Z,-80
2019-06-01T09:19:36.711Z,-80
2019-06-01T09:22:06.214Z,-80
2019-06-01T09:24:36.170Z,-80
2019-06-01T09:27:06.353Z,-80
2019-06-01T09:29:36.190Z,-80
2019-06-01T09:32:10.326Z,-80
2019-06-01T09:35:51.266Z,-80
2019-06-01T09:38:17.410Z,-80
2019-06-01T09:40:47.037Z,-80
2019-06-01T09:43:16.413Z,-80
2019-06-01T09:45:46.137Z,-80
2019-06-01T09:48:16.683Z,-80
2019-06-01T09:50:46.308Z,-79
2019-06-01T09:53:15.746Z,-80
2019-06-01T09:55:45.151Z,-80
2019-06-01T09:58:14.678Z,-79
2019-06-01T10:00:44.171Z,-80
2019-06-01T10:03:13.681Z,-80
2019-06-01T10:05:43.162Z,-80
2019-06-01T10:08:12.439Z,-80
2019-06-01T10:11:00.342Z,-80
2019-06-01T10:13:30.469Z,-80
2019-06-01T10:16:23.410Z,-80
2019-06-01T10:18:52.875Z,-80
2019-06-01T10:22:04.542Z,-80
2019-06-01T10:28:02.841Z,-78
2019-06-01T10:30:33.806Z,-78
2019-06-01T10:33:12.449Z,-78
2019-06-01T10:35:43.079Z,-78
2019-06-01T10:38:12.494Z,-78
2019-06-01T10:40:42.075Z,-78
2019-06-01T10:43:11.558Z,-78
2019-06-01T10:45:41.950Z,-78
2019-06-01T10:48:11.663Z,-78
2019-06-01T10:50:42.613Z,-78
2019-06-01T10:53:12.185Z,-78
2019-06-01T10:55:42.481Z,-78
2019-06-01T10:58:30.358Z,-77
2019-06-01T11:00:59.780Z,-78
2019-06-01T11:03:29.222Z,-78
2019-06-01T11:06:36.624Z,-78
2019-06-01T11:08:54.657Z,-78
2019-06-01T11:11:24.450Z,-78
2019-06-01T11:13:53.868Z,-78
2019-06-01T11:23:20.351Z,-80
2019-06-01T11:26:00.493Z,-80
2019-06-01T11:28:30.363Z,-80
2019-06-01T11:31:03.014Z,-80
2019-06-01T11:33:33.952Z,-80
2019-06-01T11:36:03.733Z,-80
2019-06-01T11:38:34.590Z,-79
2019-06-01T11:41:04.201Z,-80
2019-06-01T11:43:34.530Z,-80
2019-06-01T11:46:29.507Z,-80
2019-06-01T11:49:00.264Z,-80
2019-06-01T11:51:58.672Z,-80
2019-06-01T11:54:30.463Z,-80
2019-06-01T11:56:59.930Z,-80
2019-06-01T11:59:29.586Z,-80
2019-06-01T12:02:35.504Z,-80
2019-06-01T12:05:07.283Z,-79
2019-06-01T12:07:37.600Z,-79
2019-06-01T12:10:52.626Z,-79
2019-06-01T12:13:42.242Z,-80
2019-06-01T12:16:11.878Z,-80
2019-06-01T12:18:42.537Z,-80
2019-06-01T12:21:12.220Z,-80
2019-06-01T12:23:41.760Z,-80
2019-06-01T12:26:11.257Z,-80
2019-06-01T12:28:41.551Z,-80
2019-06-01T12:31:29.413Z,-80
2019-06-01T12:37:56.043Z,-80
2019-06-01T12:40:11.083Z,-80
2019-06-01T12:42:41.522Z,-80
2019-06-01T12:45:22.236Z,-80
2019-06-01T12:47:54.165Z,-81
2019-06-01T12:50:20.227Z,-81
2019-06-01T12:52:59.463Z,-80
2019-06-01T12:55:48.882Z,-80
2019-06-01T12:58:18.600Z,-80
2019-06-01T13:00:48.430Z,-80
2019-06-01T13:03:18.260Z,-80
2019-06-01T13:05:47.848Z,-80
2019-06-01T13:08:17.330Z,-80
2019-06-01T13:10:47.215Z,-80
2019-06-01T13:13:16.914Z,-80
2019-06-01T13:15:47.352Z,-80
2019-06-01T13:18:17.163Z,-80
2019-06-01T13:20:47.673Z,-80
2019-06-01T13:23:17.407Z,-80
2019-06-01T13:25:47.654Z,-80
2019-06-01T13:28:17.441Z,-80
2019-06-01T13:30:47.806Z,-80
2019-06-01T13:33:18.684Z,-80
2019-06-01T13:35:48.524Z,-80
2019-06-01T13:38:18.489Z,-80
2019-06-01T13:40:49.058Z,-80
2019-06-01T13:43:18.773Z,-81
2019-06-01T13:45:49.300Z,-80
2019-06-01T13:48:18.913Z,-80
2019-06-01T13:50:48.332Z,-80
2019-06-01T13:53:17.759Z,-80
2019-06-01T13:55:48.161Z,-80
2019-06-01T13:58:17.844Z,-80
2019-06-01T14:04:28.304Z,-78
2019-06-01T14:06:57.825Z,-78
2019-06-01T14:09:27.321Z,-77
2019-06-01T14:11:56.770Z,-77
2019-06-01T14:14:26.125Z,-77
2019-06-01T14:16:56.047Z,-77
2019-06-01T14:19:25.593Z,-78
2019-06-01T14:21:55.928Z,-78
2019-06-01T14:24:25.358Z,-78
2019-06-01T14:27:40.662Z,-78
2019-06-01T14:30:09.962Z,-78
2019-06-01T14:32:39.350Z,-77
2019-06-01T14:39:16.792Z,-78
2019-06-01T14:42:28.714Z,-77
2019-06-01T14:45:47.335Z,-79
2019-06-01T14:48:16.897Z,-80
2019-06-01T14:50:47.530Z,-80
2019-06-01T14:53:53.725Z,-79
2019-06-01T14:56:23.106Z,-79
2019-06-01T14:58:53.760Z,-79
2019-06-01T15:01:36.450Z,-79
2019-06-01T15:04:05.829Z,-80
2019-06-01T15:06:35.306Z,-79
2019-06-01T15:09:17.555Z,-79
2019-06-01T15:11:37.918Z,-79
2019-06-01T15:14:12.443Z,-79
2019-06-01T15:16:41.796Z,-80
2019-06-01T15:19:11.180Z,-80
2019-06-01T15:21:43.237Z,-80
2019-06-01T15:24:12.670Z,-79
2019-06-01T15:26:42.165Z,-79
2019-06-01T15:29:35.519Z,-79
2019-06-01T15:32:04.990Z,-79
2019-06-01T15:34:34.540Z,-79
2019-06-01T15:37:03.957Z,-79
2019-06-01T15:39:33.479Z,-79
2019-06-01T15:42:03.042Z,-79
2019-06-01T15:44:32.461Z,-79
2019-06-01T15:47:02.165Z,-80
2019-06-01T15:49:31.643Z,-79
2019-06-01T15:52:02.048Z,-79
2019-06-01T15:54:31.805Z,-79
2019-06-01T15:57:01.216Z,-79
2019-06-01T15:59:30.487Z,-79
2019-06-01T16:02:06.589Z,-79
2019-06-01T16:04:36.099Z,-79
2019-06-01T16:07:05.478Z,-79
2019-06-01T16:09:42.587Z,-79
2019-06-01T16:12:06.023Z,-79
2019-06-01T16:14:36.388Z,-79
2019-06-01T16:17:28.742Z,-79
2019-06-01T16:20:28.740Z,-79
2019-06-01T16:22:58.159Z,-79
2019-06-01T16:25:27.594Z,-79
2019-06-01T16:27:57.004Z,-79
2019-06-01T16:30:26.476Z,-79
2019-06-01T16:32:56.488Z,-79
2019-06-01T16:35:36.614Z,-79
2019-06-01T16:38:06.034Z,-79
2019-06-01T16:40:35.607Z,-79
2019-06-01T16:43:05.705Z,-79
2019-06-01T16:45:35.459Z,-79
2019-06-01T16:48:06.391Z,-79
2019-06-01T16:50:52.938Z,-79
2019-06-01T16:53:24.596Z,-79
2019-06-01T16:55:54.023Z,-79
2019-06-01T16:58:26.573Z,-79
2019-06-01T17:01:00.575Z,-79
2019-06-01T17:03:29.985Z,-79
2019-06-01T17:06:00.561Z,-79
2019-06-01T17:08:30.648Z,-79
2019-06-01T17:11:00.698Z,-79
2019-06-01T17:13:30.560Z,-79
2019-06-01T17:16:18.624Z,-79
2019-06-01T17:18:48.496Z,-80
2019-06-01T17:21:17.962Z,-79
2019-06-01T17:23:47.353Z,-79
2019-06-01T17:26:19.786Z,-80
2019-06-01T17:28:54.758Z,-79
2019-06-01T17:31:24.183Z,-79
2019-06-01T17:33:53.775Z,-79
2019-06-01T17:36:23.455Z,-79
2019-06-01T17:38:52.765Z,-79
2019-06-01T17:41:22.259Z,-79
2019-06-01T17:43:51.707Z,-79
2019-06-01T17:46:30.806Z,-80
2019-06-01T17:49:06.551Z,-79
2019-06-01T17:51:36.034Z,-79
2019-06-01T17:54:29.643Z,-79
2019-06-01T17:56:59.007Z,-79
2019-06-01T17:59:28.480Z,-79
2019-06-01T18:02:01.773Z,-79
2019-06-01T18:08:30.657Z,-79
2019-06-01T18:11:00.121Z,-79
2019-06-01T18:13:29.622Z,-79
2019-06-01T18:15:59.154Z,-79
2019-06-01T18:18:28.570Z,-78
2019-06-01T18:21:23.724Z,-79
2019-06-01T18:23:53.305Z,-79
2019-06-01T18:26:22.766Z,-79
2019-06-01T18:28:52.158Z,-79
2019-06-01T18:31:23.428Z,-79
2019-06-01T18:33:53.764Z,-79
2019-06-01T18:36:23.502Z,-79
2019-06-01T18:38:52.972Z,-79
2019-06-01T18:41:22.508Z,-79
2019-06-01T18:43:51.909Z,-79
2019-06-01T18:46:30.742Z,-79
2019-06-01T18:49:00.243Z,-79
2019-06-01T18:51:41.878Z,-79
2019-06-01T18:54:11.271Z,-79
2019-06-01T18:56:40.647Z,-80
2019-06-01T18:59:10.275Z,-79
2019-06-01T19:01:49.439Z,-79
2019-06-01T19:04:18.729Z,-79
2019-06-01T19:06:48.251Z,-79
2019-06-01T19:09:17.702Z,-79
2019-06-01T19:11:47.226Z,-79
2019-06-01T19:14:16.753Z,-79
2019-06-01T19:16:46.334Z,-79
2019-06-01T19:19:16.741Z,-79
2019-06-01T19:21:46.587Z,-79
2019-06-01T19:24:30.825Z,-79
2019-06-01T19:27:00.301Z,-79
2019-06-01T19:29:29.707Z,-79
2019-06-01T19:32:00.685Z,-79
2019-06-01T19:34:30.179Z,-79
2019-06-01T19:36:59.728Z,-79
2019-06-01T19:39:29.275Z,-79
2019-06-01T19:41:58.712Z,-79
2019-06-01T19:44:28.280Z,-80
2019-06-01T19:46:57.776Z,-80
2019-06-01T19:49:27.091Z,-79
2019-06-01T19:51:56.566Z,-79
2019-06-01T19:54:26.012Z,-79
2019-06-01T19:57:21.447Z,-79
2019-06-01T19:59:49.022Z,-79
2019-06-01T20:02:28.516Z,-79
2019-06-01T20:04:49.660Z,-79
2019-06-01T20:07:19.339Z,-79
2019-06-01T20:09:48.854Z,-79
2019-06-01T20:12:20.338Z,-80
2019-06-01T20:14:49.539Z,-80
2019-06-01T20:17:24.041Z,-79
2019-06-01T20:19:50.091Z,-79
2019-06-01T20:22:19.527Z,-79
2019-06-01T20:24:48.861Z,-79
2019-06-01T20:27:19.485Z,-79
2019-06-01T20:29:49.240Z,-79
2019-06-01T20:32:19.959Z,-79
2019-06-01T20:34:49.662Z,-79
2019-06-01T20:37:20.160Z,-79
2019-06-01T20:39:54.659Z,-80
2019-06-01T20:42:31.759Z,-79
2019-06-01T20:44:55.238Z,-80
2019-06-01T20:47:24.794Z,-79
2019-06-01T20:49:54.742Z,-79
2019-06-01T20:52:24.147Z,-79
2019-06-01T20:54:53.598Z,-79
2019-06-01T20:57:23.980Z,-79
2019-06-01T21:00:07.918Z,-79
2019-06-01T21:02:37.282Z,-79
2019-06-01T21:05:07.108Z,-79
2019-06-01T21:07:48.812Z,-80
2019-06-01T21:10:18.358Z,-80
2019-06-01T21:12:47.827Z,-80
2019-06-01T21:15:19.185Z,-80
2019-06-01T21:18:07.530Z,-80
2019-06-01T21:20:36.458Z,-72
2019-06-01T21:23:05.267Z,-72
2019-06-01T21:25:34.148Z,-72
2019-06-01T21:28:03.023Z,-72
2019-06-01T21:30:31.921Z,-72
2019-06-01T21:33:00.746Z,-72
2019-06-01T21:35:29.698Z,-72
2019-06-01T21:37:58.500Z,-72
2019-06-01T21:40:27.379Z,-72
2019-06-01T21:43:03.070Z,-72
2019-06-01T21:45:26.934Z,-72
2019-06-01T21:47:55.739Z,-72
2019-06-01T21:50:24.555Z,-72
2019-06-01T21:52:53.450Z,-73
2019-06-01T21:55:22.321Z,-73
2019-06-01T21:57:51.121Z,-73
2019-06-01T22:00:28.654Z,-72
2019-06-01T22:02:57.962Z,-72
2019-06-01T22:05:27.289Z,-72
2019-06-01T22:07:56.419Z,-72
2019-06-01T22:10:25.640Z,-73
2019-06-01T22:12:54.990Z,-73
2019-06-01T22:15:23.898Z,-72
2019-06-01T22:17:52.870Z,-72
2019-06-01T22:20:21.933Z,-72
2019-06-01T22:22:50.958Z,-72
2019-06-01T22:25:20.627Z,-72
2019-06-01T22:27:50.456Z,-72
2019-06-01T22:30:20.312Z,-72
2019-06-01T22:32:49.556Z,-72
2019-06-01T22:35:18.779Z,-72
2019-06-01T22:37:47.704Z,-72
2019-06-01T22:40:16.667Z,-72
2019-06-01T22:42:45.670Z,-72
2019-06-01T22:45:14.628Z,-72
2019-06-01T22:47:43.495Z,-73
2019-06-01T22:50:12.493Z,-72
2019-06-01T22:52:41.334Z,-72
2019-06-01T22:55:10.291Z,-72
2019-06-01T22:57:42.899Z,-72
2019-06-01T23:00:09.633Z,-73
2019-06-01T23:02:38.519Z,-72
2019-06-01T23:05:07.392Z,-72
2019-06-01T23:07:36.282Z,-72
2019-06-01T23:10:05.306Z,-73
2019-06-01T23:12:34.738Z,-72
2019-06-01T23:15:03.625Z,-72
2019-06-01T23:17:32.498Z,-72
2019-06-01T23:20:01.384Z,-72
2019-06-01T23:22:30.255Z,-72
2019-06-01T23:24:59.245Z,-72
2019-06-01T23:27:28.367Z,-72
2019-06-01T23:29:57.251Z,-72
2019-06-01T23:32:26.465Z,-72
2019-06-01T23:34:55.667Z,-72
2019-06-01T23:37:24.750Z,-72
2019-06-01T23:39:53.792Z,-72
2019-06-01T23:42:22.693Z,-72
2019-06-01T23:44:51.502Z,-72
2019-06-01T23:47:20.289Z,-72
2019-06-01T23:49:49.119Z,-72
2019-06-01T23:52:18.022Z,-72
2019-06-01T23:54:47.201Z,-72
2019-06-01T23:57:15.997Z,-73
2019-06-01T23:59:44.806Z,-72
